createdAt,value
2022-11-13T00:01:17.595Z,7.80
2022-11-13T00:03:45.694Z,7.80
2022-11-13T00:06:14.796Z,7.80
2022-11-13T00:08:44.708Z,7.80
2022-11-13T00:11:14.973Z,7.80
2022-11-13T00:13:44.023Z,7.80
2022-11-13T00:16:15.388Z,7.80
2022-11-13T00:18:44.481Z,7.90
2022-11-13T00:21:16.308Z,7.90
2022-11-13T00:23:46.109Z,7.80
2022-11-13T00:26:16.432Z,7.80
2022-11-13T00:28:45.069Z,7.70
2022-11-13T00:31:14.911Z,7.70
2022-11-13T00:34:09.228Z,7.60
2022-11-13T00:36:31.197Z,7.50
2022-11-13T00:39:00.649Z,7.60
2022-11-13T00:41:28.774Z,7.60
2022-11-13T00:43:56.827Z,7.70
2022-11-13T00:46:24.935Z,7.80
2022-11-13T00:48:53.016Z,8.00
2022-11-13T00:51:21.096Z,8.00
2022-11-13T00:53:49.285Z,8.10
2022-11-13T00:56:18.747Z,8.20
2022-11-13T00:58:46.962Z,8.10
2022-11-13T01:01:17.074Z,8.00
2022-11-13T01:03:46.060Z,7.90
2022-11-13T01:06:15.856Z,7.90
2022-11-13T01:08:44.120Z,7.90
2022-11-13T01:11:13.439Z,7.90
2022-11-13T01:13:44.812Z,7.80
2022-11-13T01:16:14.978Z,7.80
2022-11-13T01:18:43.924Z,7.80
2022-11-13T01:21:15.890Z,7.80
2022-11-13T01:23:44.075Z,7.80
2022-11-13T01:26:15.051Z,7.70
2022-11-13T01:28:45.584Z,7.80
2022-11-13T01:31:16.903Z,7.70
2022-11-13T01:33:45.547Z,7.70
2022-11-13T01:36:15.418Z,7.60
2022-11-13T01:38:43.820Z,7.60
2022-11-13T01:41:22.913Z,7.50
2022-11-13T01:43:54.088Z,7.50
2022-11-13T01:46:33.677Z,7.40
2022-11-13T01:49:13.580Z,7.30
2022-11-13T01:51:46.096Z,7.30
2022-11-13T01:54:18.908Z,7.20
2022-11-13T01:56:47.259Z,7.10
2022-11-13T01:59:19.636Z,7.00
2022-11-13T02:01:48.124Z,6.90
2022-11-13T02:04:16.249Z,6.80
2022-11-13T02:06:47.728Z,6.80
2022-11-13T02:09:17.217Z,6.80
2022-11-13T02:11:45.699Z,6.90
2022-11-13T02:14:15.251Z,6.90
2022-11-13T02:16:48.146Z,6.90
2022-11-13T02:19:21.044Z,6.80
2022-11-13T02:21:56.708Z,6.80
2022-11-13T02:24:30.469Z,6.80
2022-11-13T02:27:03.027Z,7.00
2022-11-13T02:29:31.192Z,7.10
2022-11-13T02:31:59.656Z,7.10
2022-11-13T02:34:27.781Z,7.10
2022-11-13T02:36:55.915Z,7.10
2022-11-13T02:39:23.986Z,7.20
2022-11-13T02:41:53.459Z,7.10
2022-11-13T02:44:21.526Z,7.10
2022-11-13T02:46:49.612Z,7.10
2022-11-13T02:49:17.652Z,7.10
2022-11-13T02:51:45.761Z,7.10
2022-11-13T02:54:16.938Z,7.00
2022-11-13T02:56:45.466Z,6.90
2022-11-13T02:59:15.319Z,6.80
2022-11-13T03:07:04.192Z,6.70
2022-11-13T03:09:32.258Z,6.70
2022-11-13T03:12:00.331Z,6.70
2022-11-13T03:14:29.711Z,6.60
2022-11-13T03:16:57.775Z,6.60
2022-11-13T03:19:25.952Z,6.50
2022-11-13T03:21:54.081Z,6.50
2022-11-13T03:24:22.091Z,6.50
2022-11-13T03:26:50.094Z,6.40
2022-11-13T03:29:18.132Z,6.40
2022-11-13T03:31:47.516Z,6.30
2022-11-13T03:34:15.526Z,6.30
2022-11-13T03:36:44.119Z,6.20
2022-11-13T03:39:12.130Z,6.20
2022-11-13T03:41:40.087Z,6.20
2022-11-13T03:44:08.252Z,6.30
2022-11-13T03:46:36.269Z,6.50
2022-11-13T03:49:05.864Z,6.40
2022-11-13T03:51:33.837Z,6.50
2022-11-13T03:54:01.922Z,6.40
2022-11-13T03:56:29.921Z,6.30
2022-11-13T03:58:57.904Z,6.20
2022-11-13T04:01:26.029Z,6.10
2022-11-13T04:03:54.032Z,6.00
2022-11-13T04:06:23.448Z,5.90
2022-11-13T04:08:51.505Z,5.80
2022-11-13T04:11:19.522Z,5.70
2022-11-13T04:13:47.539Z,5.70
2022-11-13T04:16:15.573Z,5.60
2022-11-13T04:18:43.622Z,5.60
2022-11-13T04:21:11.631Z,5.60
2022-11-13T04:23:41.015Z,5.60
2022-11-13T04:26:08.986Z,5.60
2022-11-13T04:28:37.008Z,5.60
2022-11-13T04:31:05.112Z,5.60
2022-11-13T04:33:33.088Z,5.50
2022-11-13T04:36:01.155Z,5.40
2022-11-13T04:38:29.330Z,5.40
2022-11-13T04:41:12.881Z,5.40
2022-11-13T04:43:40.891Z,5.40
2022-11-13T04:46:08.914Z,5.30
2022-11-13T04:48:36.888Z,5.30
2022-11-13T04:51:05.264Z,5.30
2022-11-13T04:53:33.301Z,5.20
2022-11-13T04:56:02.661Z,5.10
2022-11-13T04:58:30.937Z,5.00
2022-11-13T05:00:59.144Z,5.00
2022-11-13T05:03:27.130Z,4.90
2022-11-13T05:05:55.154Z,5.00
2022-11-13T05:08:23.182Z,5.00
2022-11-13T05:10:51.241Z,4.90
2022-11-13T05:13:20.600Z,4.90
2022-11-13T05:28:06.739Z,4.70
2022-11-13T05:30:36.150Z,4.70
2022-11-13T05:33:04.176Z,4.70
2022-11-13T05:35:32.235Z,4.70
2022-11-13T05:38:02.547Z,4.70
2022-11-13T05:40:30.756Z,4.60
2022-11-13T05:42:58.830Z,4.50
2022-11-13T05:45:26.882Z,4.50
2022-11-13T05:47:56.276Z,4.50
2022-11-13T05:50:24.268Z,4.40
2022-11-13T05:52:52.259Z,4.40
2022-11-13T05:55:23.355Z,4.40
2022-11-13T05:57:51.680Z,4.40
2022-11-13T06:00:20.216Z,4.30
2022-11-13T06:02:48.211Z,4.40
2022-11-13T06:05:17.623Z,4.40
2022-11-13T06:07:45.648Z,4.40
2022-11-13T06:10:13.643Z,4.40
2022-11-13T06:12:41.680Z,4.30
2022-11-13T06:15:10.442Z,4.30
2022-11-13T06:17:38.473Z,4.40
2022-11-13T06:20:07.137Z,4.40
2022-11-13T06:22:36.492Z,4.40
2022-11-13T06:25:04.818Z,4.40
2022-11-13T06:27:32.828Z,4.40
2022-11-13T06:30:00.797Z,4.40
2022-11-13T06:32:28.806Z,4.40
2022-11-13T06:34:56.805Z,4.40
2022-11-13T06:37:24.791Z,4.50
2022-11-13T06:39:54.154Z,4.50
2022-11-13T06:42:22.145Z,4.40
2022-11-13T06:44:50.169Z,4.40
2022-11-13T06:47:18.137Z,4.40
2022-11-13T06:49:46.157Z,4.30
2022-11-13T06:52:14.186Z,4.30
2022-11-13T06:54:42.217Z,4.30
2022-11-13T06:57:11.588Z,4.20
2022-11-13T06:59:39.705Z,4.20
2022-11-13T07:02:07.940Z,4.20
2022-11-13T07:04:36.040Z,4.20
2022-11-13T07:07:04.482Z,4.30
2022-11-13T07:09:32.790Z,4.40
2022-11-13T07:12:00.840Z,4.30
2022-11-13T07:14:30.213Z,4.40
2022-11-13T07:17:09.295Z,4.40
2022-11-13T07:19:38.351Z,4.50
2022-11-13T07:22:06.380Z,4.50
2022-11-13T07:24:34.419Z,4.50
2022-11-13T07:27:02.407Z,4.60
2022-11-13T07:29:31.793Z,4.60
2022-11-13T07:31:59.847Z,4.60
2022-11-13T07:34:27.866Z,4.70
2022-11-13T07:36:55.891Z,4.80
2022-11-13T07:39:23.866Z,5.00
2022-11-13T07:41:51.881Z,5.10
2022-11-13T07:44:40.004Z,5.10
2022-11-13T07:47:09.306Z,5.20
2022-11-13T07:49:37.367Z,5.30
2022-11-13T07:52:05.737Z,5.30
2022-11-13T07:54:33.816Z,5.50
2022-11-13T07:57:01.860Z,5.60
2022-11-13T07:59:30.027Z,5.70
2022-11-13T08:01:58.047Z,5.80
2022-11-13T08:04:27.463Z,5.80
2022-11-13T08:06:55.569Z,6.00
2022-11-13T08:09:23.922Z,6.60
2022-11-13T08:11:51.893Z,7.60
2022-11-13T08:14:19.869Z,8.60
2022-11-13T08:16:47.911Z,9.50
2022-11-13T08:19:15.915Z,10.10
2022-11-13T08:21:45.346Z,10.70
2022-11-13T08:24:13.478Z,11.30
2022-11-13T08:26:41.585Z,11.10
2022-11-13T08:29:09.600Z,11.30
2022-11-13T08:31:38.249Z,11.40
2022-11-13T08:34:06.272Z,11.40
2022-11-13T08:36:34.301Z,11.50
2022-11-13T08:39:03.670Z,11.70
2022-11-13T08:41:31.762Z,12.10
2022-11-13T08:43:59.793Z,12.10
2022-11-13T08:46:27.983Z,12.30
2022-11-13T08:48:56.027Z,12.50
2022-11-13T08:51:24.011Z,12.10
2022-11-13T08:53:52.036Z,11.20
2022-11-13T08:56:21.421Z,10.50
2022-11-13T08:58:49.592Z,10.00
2022-11-13T09:01:17.694Z,9.70
2022-11-13T09:03:45.867Z,9.70
2022-11-13T09:06:13.934Z,9.60
2022-11-13T09:08:41.918Z,9.60
2022-11-13T09:11:09.956Z,9.60
2022-11-13T09:13:43.994Z,9.50
2022-11-13T09:16:14.129Z,9.50
2022-11-13T09:18:42.168Z,9.50
2022-11-13T09:21:11.090Z,9.40
2022-11-13T09:23:39.205Z,9.50
2022-11-13T09:26:07.336Z,9.50
2022-11-13T09:28:35.710Z,9.40
2022-11-13T09:31:07.658Z,9.40
2022-11-13T09:33:36.095Z,9.50
2022-11-13T09:36:04.700Z,9.50
2022-11-13T09:38:32.864Z,9.50
2022-11-13T09:41:05.477Z,9.60
2022-11-13T09:43:40.398Z,9.70
2022-11-13T09:46:16.881Z,9.70
2022-11-13T09:48:49.339Z,9.80
2022-11-13T09:51:22.058Z,9.90
2022-11-13T09:53:50.293Z,10.00
2022-11-13T09:56:26.866Z,10.00
2022-11-13T09:59:06.333Z,10.10
2022-11-13T10:01:48.604Z,10.10
2022-11-13T10:04:20.421Z,10.10
2022-11-13T10:06:58.463Z,10.20
2022-11-13T10:09:35.963Z,10.20
2022-11-13T10:12:07.509Z,10.30
2022-11-13T10:14:39.001Z,10.40
2022-11-13T10:17:16.336Z,10.50
2022-11-13T10:19:53.568Z,10.50
2022-11-13T10:22:33.950Z,10.60
2022-11-13T10:25:11.792Z,10.60
2022-11-13T10:27:40.342Z,10.60
2022-11-13T10:30:16.073Z,10.70
2022-11-13T10:32:45.894Z,10.80
2022-11-13T10:35:47.415Z,10.90
2022-11-13T10:38:23.540Z,11.00
2022-11-13T10:40:52.061Z,11.20
2022-11-13T10:43:22.352Z,11.30
2022-11-13T10:45:58.909Z,11.30
2022-11-13T10:48:31.446Z,11.40
2022-11-13T10:51:01.630Z,11.50
2022-11-13T10:53:38.844Z,11.60
2022-11-13T10:56:21.614Z,11.60
2022-11-13T10:59:05.093Z,11.70
2022-11-13T11:01:33.191Z,11.70
2022-11-13T11:04:05.287Z,11.70
2022-11-13T11:07:04.473Z,11.80
2022-11-13T11:09:27.317Z,11.80
2022-11-13T11:12:22.075Z,11.90
2022-11-13T11:15:19.395Z,12.00
2022-11-13T11:17:51.691Z,12.10
2022-11-13T11:20:26.633Z,12.30
2022-11-13T11:22:59.934Z,12.40
2022-11-13T11:25:35.830Z,12.50
2022-11-13T11:28:09.005Z,12.60
2022-11-13T11:30:44.802Z,12.80
2022-11-13T11:33:18.260Z,12.90
2022-11-13T11:35:53.440Z,12.90
2022-11-13T11:38:28.522Z,12.90
2022-11-13T11:41:03.818Z,12.90
2022-11-13T11:43:40.786Z,13.00
2022-11-13T11:46:12.583Z,13.00
2022-11-13T11:48:41.632Z,13.10
2022-11-13T11:51:22.288Z,13.20
2022-11-13T11:53:59.839Z,13.30
2022-11-13T11:56:34.870Z,13.50
2022-11-13T11:59:42.021Z,13.50
2022-11-13T12:02:53.135Z,13.50
2022-11-13T12:05:25.552Z,13.60
2022-11-13T12:08:07.696Z,13.60
2022-11-13T12:10:46.499Z,13.70
2022-11-13T12:13:33.156Z,13.80
2022-11-13T12:16:14.480Z,14.00
2022-11-13T12:18:51.516Z,14.20
2022-11-13T12:21:23.889Z,14.40
2022-11-13T12:24:14.720Z,14.50
2022-11-13T12:26:48.102Z,14.40
2022-11-13T12:29:34.707Z,14.60
2022-11-13T12:32:12.813Z,14.40
2022-11-13T12:34:45.996Z,14.30
2022-11-13T12:37:18.470Z,14.20
2022-11-13T12:39:55.889Z,14.20
2022-11-13T12:42:31.576Z,14.20
2022-11-13T12:45:10.359Z,14.10
2022-11-13T12:47:38.850Z,14.10
2022-11-13T12:50:21.348Z,14.10
2022-11-13T12:53:00.477Z,14.10
2022-11-13T12:55:32.450Z,14.20
2022-11-13T12:58:10.264Z,14.20
2022-11-13T13:00:42.340Z,14.20
2022-11-13T13:03:27.253Z,14.20
2022-11-13T13:06:07.090Z,14.20
2022-11-13T13:08:57.769Z,14.30
2022-11-13T13:11:38.157Z,14.20
2022-11-13T13:14:27.020Z,14.30
2022-11-13T13:17:06.487Z,14.30
2022-11-13T13:19:35.356Z,14.30
2022-11-13T13:22:03.357Z,14.40
2022-11-13T13:24:34.135Z,14.50
2022-11-13T13:27:21.575Z,14.50
2022-11-13T13:29:49.577Z,14.40
2022-11-13T13:32:23.504Z,14.50
2022-11-13T13:35:02.224Z,14.50
2022-11-13T13:37:38.686Z,14.50
2022-11-13T13:40:19.160Z,14.50
2022-11-13T13:43:05.358Z,14.50
2022-11-13T13:45:43.588Z,14.50
2022-11-13T13:48:13.659Z,14.50
2022-11-13T13:50:46.652Z,14.40
2022-11-13T13:53:18.172Z,14.50
2022-11-13T13:55:49.717Z,14.50
2022-11-13T13:58:24.225Z,14.50
2022-11-13T14:01:17.629Z,14.40
2022-11-13T14:03:46.182Z,14.60
2022-11-13T14:06:22.706Z,14.70
2022-11-13T14:08:50.819Z,14.70
2022-11-13T14:11:21.169Z,14.70
2022-11-13T14:13:50.553Z,14.70
2022-11-13T14:16:18.580Z,14.60
2022-11-13T14:18:46.672Z,14.70
2022-11-13T14:21:19.703Z,14.60
2022-11-13T14:23:51.120Z,14.70
2022-11-13T14:26:21.345Z,14.60
2022-11-13T14:28:55.727Z,14.70
2022-11-13T14:31:29.949Z,14.70
2022-11-13T14:34:01.422Z,14.70
2022-11-13T14:36:31.845Z,14.70
2022-11-13T14:39:00.695Z,14.60
2022-11-13T14:41:36.189Z,14.50
2022-11-13T14:44:05.970Z,14.40
2022-11-13T14:46:37.542Z,14.30
2022-11-13T14:49:13.545Z,14.10
2022-11-13T14:51:41.834Z,14.00
2022-11-13T14:54:33.824Z,13.80
2022-11-13T14:57:10.871Z,13.70
2022-11-13T14:59:42.464Z,13.60
2022-11-13T15:02:12.718Z,13.50
2022-11-13T15:04:41.012Z,13.60
2022-11-13T15:07:22.905Z,13.60
2022-11-13T15:09:51.345Z,13.70
2022-11-13T15:12:19.420Z,13.70
2022-11-13T15:14:48.963Z,13.70
2022-11-13T15:17:19.359Z,13.70
2022-11-13T15:19:49.591Z,13.60
2022-11-13T15:22:27.143Z,13.60
2022-11-13T15:24:55.885Z,13.50
2022-11-13T15:27:26.472Z,13.40
2022-11-13T15:29:55.876Z,13.40
2022-11-13T15:32:23.927Z,13.30
2022-11-13T15:34:51.908Z,13.20
2022-11-13T15:37:19.915Z,13.20
2022-11-13T15:39:48.127Z,13.10
2022-11-13T15:42:18.764Z,13.10
2022-11-13T15:44:49.131Z,13.00
2022-11-13T15:47:30.696Z,13.00
2022-11-13T15:50:15.671Z,12.90
2022-11-13T15:52:46.903Z,12.80
2022-11-13T15:55:28.485Z,12.70
2022-11-13T15:57:57.485Z,12.60
2022-11-13T16:00:27.520Z,12.60
2022-11-13T16:02:58.569Z,12.60
2022-11-13T16:05:29.294Z,12.70
2022-11-13T16:07:58.108Z,12.70
2022-11-13T16:10:26.433Z,12.70
2022-11-13T16:12:55.451Z,12.70
2022-11-13T16:15:23.852Z,12.70
2022-11-13T16:17:55.576Z,12.70
2022-11-13T16:20:25.467Z,12.70
2022-11-13T16:22:53.541Z,12.70
2022-11-13T16:25:24.530Z,12.70
2022-11-13T16:27:53.315Z,12.60
2022-11-13T16:30:23.300Z,12.60
2022-11-13T16:32:51.493Z,12.60
2022-11-13T16:35:20.955Z,12.60
2022-11-13T16:37:50.335Z,12.60
2022-11-13T16:40:21.912Z,12.60
2022-11-13T16:42:49.913Z,12.50
2022-11-13T16:45:18.361Z,12.40
2022-11-13T16:47:47.307Z,12.20
2022-11-13T16:50:17.242Z,12.10
2022-11-13T16:52:45.278Z,12.00
2022-11-13T16:55:14.956Z,12.00
2022-11-13T16:57:43.307Z,12.00
2022-11-13T17:00:16.153Z,11.90
2022-11-13T17:02:44.918Z,11.80
2022-11-13T17:05:14.672Z,11.90
2022-11-13T17:07:43.122Z,11.80
2022-11-13T17:10:32.240Z,11.80
2022-11-13T17:13:00.871Z,11.70
2022-11-13T17:15:29.006Z,11.70
2022-11-13T17:17:59.251Z,11.70
2022-11-13T17:20:28.122Z,11.70
2022-11-13T17:22:56.144Z,11.70
2022-11-13T17:25:27.987Z,11.80
2022-11-13T17:27:56.093Z,11.80
2022-11-13T17:30:24.430Z,11.80
2022-11-13T17:32:52.451Z,11.80
2022-11-13T17:35:20.522Z,11.80
2022-11-13T17:37:48.586Z,11.80
2022-11-13T17:40:17.272Z,11.80
2022-11-13T17:42:48.095Z,11.80
2022-11-13T17:45:16.690Z,11.70
2022-11-13T17:47:44.689Z,11.60
2022-11-13T17:50:12.758Z,11.60
2022-11-13T17:52:43.106Z,11.60
2022-11-13T17:55:13.207Z,11.50
2022-11-13T17:57:41.361Z,11.40
2022-11-13T18:00:12.328Z,11.40
2022-11-13T18:02:40.591Z,11.30
2022-11-13T18:05:09.914Z,11.20
2022-11-13T18:07:38.511Z,11.10
2022-11-13T18:10:07.480Z,11.10
2022-11-13T18:12:35.517Z,11.00
2022-11-13T18:15:03.663Z,11.00
2022-11-13T18:17:33.266Z,11.00
2022-11-13T18:20:02.199Z,11.00
2022-11-13T18:22:31.592Z,11.00
2022-11-13T18:25:01.576Z,11.00
2022-11-13T18:27:29.747Z,11.00
2022-11-13T18:29:57.872Z,10.90
2022-11-13T18:32:25.922Z,10.90
2022-11-13T18:34:55.354Z,10.80
2022-11-13T18:37:23.509Z,10.70
2022-11-13T18:39:51.732Z,10.60
2022-11-13T18:42:19.864Z,10.60
2022-11-13T18:44:47.988Z,10.60
2022-11-13T18:47:16.171Z,10.60
2022-11-13T18:49:44.194Z,10.50
2022-11-13T18:52:13.964Z,10.40
2022-11-13T18:54:42.014Z,10.40
2022-11-13T18:57:10.127Z,10.40
2022-11-13T18:59:38.218Z,10.40
2022-11-13T19:02:06.403Z,10.40
2022-11-13T19:04:36.432Z,10.40
2022-11-13T19:07:04.588Z,10.30
2022-11-13T19:09:34.064Z,10.30
2022-11-13T19:12:02.065Z,10.30
2022-11-13T19:14:30.114Z,10.30
2022-11-13T19:16:58.158Z,10.20
2022-11-13T19:19:26.165Z,10.30
2022-11-13T19:21:54.151Z,10.20
2022-11-13T19:24:22.255Z,10.20
2022-11-13T19:26:51.667Z,10.20
2022-11-13T19:29:20.301Z,10.10
2022-11-13T19:31:49.320Z,10.10
2022-11-13T19:34:20.136Z,10.00
2022-11-13T19:36:51.310Z,9.90
2022-11-13T19:39:29.102Z,9.80
2022-11-13T19:41:58.529Z,9.80
2022-11-13T19:44:27.369Z,9.70
2022-11-13T19:46:55.543Z,9.60
2022-11-13T19:49:23.512Z,9.60
2022-11-13T19:51:51.624Z,9.60
2022-11-13T19:54:19.676Z,9.60
2022-11-13T19:56:47.698Z,9.50
2022-11-13T19:59:17.170Z,9.50
2022-11-13T20:01:45.206Z,9.40
2022-11-13T20:04:14.190Z,9.30
2022-11-13T20:06:42.314Z,9.20
2022-11-13T20:09:10.779Z,9.10
2022-11-13T20:11:38.870Z,8.90
2022-11-13T20:14:08.230Z,8.80
2022-11-13T20:16:38.595Z,8.80
2022-11-13T20:19:06.715Z,8.80
2022-11-13T20:21:34.736Z,8.70
2022-11-13T20:24:02.772Z,8.80
2022-11-13T20:26:31.191Z,8.80
2022-11-13T20:28:59.193Z,8.90
2022-11-13T20:31:28.731Z,8.80
2022-11-13T20:33:58.373Z,8.70
2022-11-13T20:36:26.845Z,8.70
2022-11-13T20:38:56.468Z,8.60
2022-11-13T20:41:25.578Z,8.60
2022-11-13T20:43:55.794Z,8.60
2022-11-13T21:01:48.547Z,8.40
2022-11-13T21:04:16.702Z,8.40
2022-11-13T21:06:44.909Z,8.40
2022-11-13T21:09:13.069Z,8.30
2022-11-13T21:11:41.291Z,8.30
2022-11-13T21:14:10.784Z,8.20
2022-11-13T21:16:39.037Z,8.10
2022-11-13T21:19:10.436Z,8.10
2022-11-13T21:21:41.498Z,8.10
2022-11-13T21:24:09.505Z,8.00
2022-11-13T21:26:37.522Z,8.00
2022-11-13T21:29:05.711Z,7.90
2022-11-13T21:31:33.908Z,7.90
2022-11-13T21:34:01.970Z,7.80
2022-11-13T21:41:17.233Z,7.70
2022-11-13T21:43:46.643Z,7.50
2022-11-13T21:46:14.947Z,7.40
2022-11-13T21:48:43.059Z,7.30
2022-11-13T21:51:11.693Z,7.30
2022-11-13T21:53:40.168Z,7.40
2022-11-13T21:56:14.245Z,7.40
2022-11-13T21:58:44.283Z,7.40
2022-11-13T22:01:14.031Z,7.50
2022-11-13T22:03:42.579Z,7.50
2022-11-13T22:06:15.482Z,7.50
2022-11-13T22:08:43.771Z,7.50
2022-11-13T22:11:12.175Z,7.40
2022-11-13T22:13:40.456Z,7.40
2022-11-13T22:16:10.021Z,7.30
2022-11-13T22:18:39.433Z,7.30
2022-11-13T22:21:10.022Z,7.20
2022-11-13T22:23:38.071Z,7.20
2022-11-13T22:26:07.726Z,7.20
2022-11-13T22:28:37.105Z,7.10
2022-11-13T22:31:06.218Z,7.10
2022-11-13T22:33:36.771Z,7.00
2022-11-13T22:36:08.254Z,7.00
2022-11-13T22:38:36.589Z,7.00
2022-11-13T22:41:05.703Z,6.90
2022-11-13T22:43:35.030Z,6.90
2022-11-13T22:46:05.061Z,6.80
2022-11-13T22:48:33.310Z,6.70
2022-11-13T22:51:07.575Z,6.80
2022-11-13T22:53:35.631Z,6.70
2022-11-13T22:56:05.194Z,6.70
2022-11-13T22:58:33.271Z,6.60
2022-11-13T23:01:10.708Z,6.60
2022-11-13T23:03:40.339Z,6.60
2022-11-13T23:06:11.325Z,6.50
2022-11-13T23:08:40.501Z,6.50
2022-11-13T23:11:12.220Z,6.50
2022-11-13T23:13:42.212Z,6.40
2022-11-13T23:16:11.505Z,6.40
2022-11-13T23:18:39.618Z,6.30
2022-11-13T23:21:10.841Z,6.40
2022-11-13T23:23:39.044Z,6.30
2022-11-13T23:26:08.874Z,6.30
2022-11-13T23:28:37.576Z,6.30
2022-11-13T23:31:06.085Z,6.30
2022-11-13T23:33:34.128Z,6.20
2022-11-13T23:36:02.490Z,6.20
2022-11-13T23:38:32.218Z,6.10
2022-11-13T23:41:02.054Z,6.10
2022-11-13T23:44:01.633Z,6.10
2022-11-13T23:46:19.014Z,6.00
2022-11-13T23:48:47.011Z,6.00
2022-11-13T23:51:15.001Z,6.00
2022-11-13T23:53:44.418Z,6.00
2022-11-13T23:56:12.513Z,5.90
2022-11-13T23:58:40.563Z,5.80
